सभी
Mitiaro (Nukuroa) Airport (Mitiaro (Nukuroa)) MOI मौसम
|
Mitiaro (Nukuroa) (MOI / NCMR)
स्वच्छ आकाश
शांत हवाएं |
|
24 °C |
There is no TAF data available at MOI or any nearby airports.
Recent MOI METAR history
| Date | Time (-10) | Flight Rules | Wind Dir. | Speed | Type | Height AGL (ft) | Visibility | Temp (°C) | Temp (°F) | Dew Point (°C) | Dew Point (°F) | Rel. Humid. | Pressure | Density Altitude | Remarks |
|---|---|---|---|---|---|---|---|---|---|---|---|---|---|---|---|
| 02-मई | 08:00 | n/a | 50° | 2 kt | Missing | 24° | 75° | 23° | 73° | 94% | 1011 mb | 1,189 ft | |||
| 02-मई | 07:00 | n/a | 240° | 3 kt | Missing | 24° | 75° | 23° | 73° | 94% | 1010 mb | 1,219 ft | |||
| 02-मई | 06:00 | n/a | 130° | 1 kt | Missing | 24° | 75° | 23° | 73° | 94% | 1010 mb | 1,219 ft | |||
| 02-मई | 05:00 | n/a | 170° | 3 kt | Missing | 24° | 75° | 23° | 73° | 94% | 1010 mb | 1,219 ft | |||
| 02-मई | 04:00 | n/a | 30° | 4 kt | Missing | 25° | 77° | 23° | 73° | 89% | 1010 mb | 1,339 ft | |||
| 02-मई | 03:00 | n/a | 30° | 4 kt | Missing | 25° | 77° | 24° | 75° | 94% | 1010 mb | 1,339 ft | |||
| 02-मई | 02:00 | n/a | 80° | 2 kt | Missing | 25° | 77° | 24° | 75° | 94% | 1011 mb | 1,309 ft | |||
| 02-मई | 01:00 | n/a | 60° | 2 kt | Missing | 25° | 77° | 24° | 75° | 94% | 1011 mb | 1,309 ft | |||
| 02-मई | 00:00 | n/a | 70° | 2 kt | Missing | 25° | 77° | 24° | 75° | 94% | 1011 mb | 1,309 ft | |||
| 01-मई | 23:00 | n/a | 80° | 1 kt | Missing | 25° | 77° | 24° | 75° | 94% | 1012 mb | 1,280 ft | |||
| 01-मई | 22:00 | n/a | 100° | 1 kt | Missing | 25° | 77° | 24° | 75° | 94% | 1011 mb | 1,309 ft | |||
| 01-मई | 21:00 | n/a | 90° | 1 kt | Missing | 25° | 77° | 24° | 75° | 94% | 1012 mb | 1,280 ft | |||
| 01-मई | 20:00 | n/a | 360° | 1 kt | Missing | 26° | 78° | 24° | 75° | 89% | 1012 mb | 1,400 ft | |||
| 01-मई | 19:00 | n/a | 20° | 2 kt | Missing | 26° | 78° | 25° | 77° | 94% | 1011 mb | 1,429 ft | |||
| 01-मई | 18:00 | n/a | 30° | 2 kt | Missing | 27° | 80° | 25° | 77° | 89% | 1011 mb | 1,549 ft | |||
| 01-मई | 17:00 | n/a | 90° | 1 kt | Missing | 28° | 82° | 24° | 75° | 79% | 1010 mb | 1,699 ft | |||
| 01-मई | 16:00 | n/a | 320° | 1 kt | Missing | 28° | 82° | 23° | 73° | 74% | 1010 mb | 1,699 ft | |||
| 01-मई | 15:00 | n/a | 300° | 2 kt | Missing | 27° | 80° | 24° | 75° | 84% | 1010 mb | 1,579 ft | |||
| 01-मई | 14:00 | n/a | 290° | 1 kt | Missing | 29° | 84° | 25° | 77° | 79% | 1011 mb | 1,789 ft | |||
| 01-मई | 13:00 | n/a | 290° | 1 kt | Missing | 29° | 84° | 25° | 77° | 79% | 1011 mb | 1,789 ft | |||
| 01-मई | 12:00 | n/a | 300° | 2 kt | Missing | 29° | 84° | 25° | 77° | 79% | 1012 mb | 1,760 ft | |||
| 01-मई | 11:00 | n/a | 10° | 2 kt | Missing | 27° | 80° | 24° | 75° | 84% | 1012 mb | 1,520 ft | |||
| 01-मई | 10:00 | n/a | 240° | 2 kt | Missing | 26° | 78° | 25° | 77° | 94% | 1013 mb | 1,370 ft | |||
| 01-मई | 09:00 | n/a | 20° | 3 kt | Missing | 25° | 77° | 24° | 75° | 94% | 1012 mb | 1,280 ft |
लॉगिन
| Your browser is unsupported. अपना ब्राऊजर अपग्रेड करें |
